Time;durP1;ratioP1;P1;durP2;ratioP2;P2;SDS_P1;SDS_P2;PMS_P1;PMS_P2;Temp;Humidity;BMP_temperature;BMP_pressure;BME280_temperature;BME280_humidity;BME280_pressure;Samples;Min_cycle;Max_cycle;Signal;HPM_P1;HPM_P2
2022/11/22 02:24:21;;;;;;;2.80;1.93;;;5.20;99.90;;;;;;6323845;22;20481;-82
2022/11/22 02:26:49;;;;;;;2.23;1.80;;;5.30;99.90;;;;;;6366311;22;20406;-80
2022/11/22 02:30:11;;;;;;;3.43;1.73;;;4.80;99.90;;;;;;6371555;22;20463;-79
2022/11/22 02:32:39;;;;;;;2.20;1.90;;;5.30;99.90;;;;;;6368689;22;20429;-82
2022/11/22 02:35:17;;;;;;;3.53;1.90;;;5.20;99.90;;;;;;6362354;22;20435;-83
2022/11/22 02:37:44;;;;;;;1.67;1.40;;;5.20;99.90;;;;;;6369995;22;20883;-83
2022/11/22 02:40:15;;;;;;;1.70;1.60;;;5.40;99.90;;;;;;6368382;22;20460;-87
2022/11/22 02:42:47;;;;;;;1.60;1.40;;;5.20;99.90;;;;;;6372291;22;20437;-86
2022/11/22 02:45:14;;;;;;;1.57;1.40;;;5.20;99.90;;;;;;6367712;22;20455;-82
2022/11/22 02:47:43;;;;;;;1.63;1.30;;;5.20;99.90;;;;;;6367247;22;20406;-82
2022/11/22 02:50:10;;;;;;;1.80;1.50;;;5.30;99.90;;;;;;6367757;22;20912;-84
2022/11/22 02:52:37;;;;;;;2.70;1.50;;;5.30;99.90;;;;;;6368571;22;20410;-82
2022/11/22 02:55:05;;;;;;;1.30;1.20;;;5.20;99.90;;;;;;6369686;22;20736;-81
2022/11/22 03:18:16;;;;;;;1.30;1.00;;;5.70;99.90;;;;;;6333085;22;20765;-84
2022/11/22 03:20:43;;;;;;;1.00;0.90;;;5.50;99.90;;;;;;6333978;22;20408;-84
2022/11/22 03:23:12;;;;;;;1.73;1.20;;;5.90;99.90;;;;;;6335013;22;20459;-84
2022/11/22 04:26:07;;;;;;;1.53;1.10;;;6.30;99.90;;;;;;6358803;22;20453;-81
2022/11/22 04:28:34;;;;;;;1.17;1.00;;;5.70;99.90;;;;;;6369655;22;20430;-84
2022/11/22 04:33:45;;;;;;;2.07;1.10;;;6.00;99.90;;;;;;6365894;22;20491;-83
2022/11/22 04:36:12;;;;;;;1.20;1.10;;;5.70;99.90;;;;;;6365693;22;20778;-85
2022/11/22 04:38:39;;;;;;;1.10;1.00;;;5.80;99.90;;;;;;6364852;22;20438;-83
2022/11/22 04:41:07;;;;;;;2.20;1.13;;;5.70;99.90;;;;;;6365279;22;20899;-83
2022/11/22 04:46:20;;;;;;;2.83;1.20;;;6.00;99.90;;;;;;6366071;22;20381;-84
2022/11/22 04:48:47;;;;;;;1.63;1.00;;;5.80;99.90;;;;;;6365592;22;20437;-85
2022/11/22 04:54:00;;;;;;;1.40;1.10;;;5.60;99.90;;;;;;6367983;22;20447;-84
2022/11/22 04:56:28;;;;;;;1.87;1.17;;;5.80;99.90;;;;;;6365502;22;20399;-83
2022/11/22 04:58:55;;;;;;;3.00;1.60;;;5.80;99.90;;;;;;6365433;22;20403;-84
2022/11/22 05:01:26;;;;;;;3.23;1.63;;;5.80;99.90;;;;;;6365052;22;20871;-84
2022/11/22 05:03:53;;;;;;;1.50;1.20;;;5.50;99.90;;;;;;6366034;22;20451;-83
2022/11/22 05:23:53;;;;;;;1.53;1.20;;;5.50;99.90;;;;;;6317272;22;20451;-81
2022/11/22 05:25:09;;;;;;;1.70;1.20;;;5.40;99.90;;;;;;6305932;22;20632;-82
2022/11/22 05:27:41;;;;;;;1.73;1.20;;;5.50;99.90;;;;;;6310561;22;20518;-79
2022/11/22 05:40:49;;;;;;;2.30;1.60;;;5.60;99.90;;;;;;6294010;22;20581;-80
2022/11/22 05:43:21;;;;;;;1.60;1.50;;;5.60;99.90;;;;;;6355898;22;20520;-79
2022/11/22 05:45:48;;;;;;;1.70;1.40;;;5.90;99.90;;;;;;6364873;22;20442;-79
2022/11/22 05:48:15;;;;;;;3.37;1.20;;;6.00;99.90;;;;;;6362937;22;20478;-79
2022/11/22 05:50:42;;;;;;;2.80;2.33;;;5.80;99.90;;;;;;6363809;22;20974;-86
2022/11/22 05:53:09;;;;;;;1.97;1.70;;;5.80;99.90;;;;;;6362690;22;20407;-86
2022/11/22 05:55:36;;;;;;;2.77;1.87;;;5.70;99.90;;;;;;6368349;22;20493;-85
2022/11/22 05:58:04;;;;;;;2.27;1.47;;;5.60;99.90;;;;;;6363120;22;20408;-78
2022/11/22 06:00:33;;;;;;;3.00;1.50;;;5.60;99.90;;;;;;6364375;22;20456;-79
2022/11/22 06:03:01;;;;;;;8.13;2.57;;;5.90;99.90;;;;;;6363780;22;20438;-82
2022/11/22 06:05:28;;;;;;;2.67;1.77;;;5.60;99.90;;;;;;6367493;22;20399;-76
2022/11/22 06:28:55;;;;;;;3.90;2.53;;;5.60;99.90;;;;;;6372678;22;20791;-77
2022/11/22 06:31:24;;;;;;;2.77;2.23;;;5.20;99.90;;;;;;6381528;22;20419;-77
2022/11/22 06:33:58;;;;;;;2.53;2.33;;;5.50;99.90;;;;;;6384520;22;20402;-79
2022/11/22 06:36:27;;;;;;;2.80;2.33;;;5.50;99.90;;;;;;6381448;22;20409;-80
2022/11/22 06:38:56;;;;;;;2.17;1.97;;;5.60;99.90;;;;;;6376864;22;20428;-82
2022/11/22 06:41:28;;;;;;;4.10;2.70;;;5.50;99.90;;;;;;6380387;22;20402;-81
2022/11/22 06:51:55;;;;;;;2.50;2.10;;;;;;;;;;6288876;22;20551;-80
2022/11/22 09:01:03;;;;;;;6.93;4.13;;;5.80;99.90;;;;;;6295729;22;20446;-84
2022/11/22 09:03:40;;;;;;;11.70;5.03;;;5.80;99.90;;;;;;6383470;22;20484;-80
2022/11/22 09:06:10;;;;;;;4.43;3.87;;;5.80;99.90;;;;;;6363456;22;20964;-76
2022/11/22 09:08:38;;;;;;;12.47;4.83;;;5.90;99.90;;;;;;6364851;22;20463;-77
2022/11/22 09:11:08;;;;;;;5.10;3.70;;;5.80;99.90;;;;;;6364420;22;21024;-77
2022/11/22 09:13:36;;;;;;;5.53;4.10;;;5.90;99.90;;;;;;6365753;22;20394;-77
2022/11/22 09:16:06;;;;;;;9.20;4.40;;;5.90;99.90;;;;;;6363710;22;20407;-77
2022/11/22 09:18:33;;;;;;;4.83;3.97;;;5.90;99.90;;;;;;6363628;22;20399;-76
2022/11/22 09:21:05;;;;;;;5.37;4.40;;;6.00;99.90;;;;;;6362786;22;20533;-78
2022/11/22 09:23:33;;;;;;;9.47;4.60;;;5.90;99.90;;;;;;6363958;22;20495;-78
2022/11/22 09:26:03;;;;;;;5.70;4.17;;;6.00;99.90;;;;;;6363012;22;20407;-76
2022/11/22 09:28:30;;;;;;;11.37;4.73;;;5.90;99.90;;;;;;6364483;22;20430;-76
2022/11/22 09:31:01;;;;;;;8.90;4.00;;;5.70;99.90;;;;;;6362434;22;20411;-76
2022/11/22 09:33:34;;;;;;;7.53;4.60;;;6.10;99.90;;;;;;6362933;22;20389;-76
2022/11/22 09:36:03;;;;;;;9.43;4.50;;;6.00;99.90;;;;;;6362494;22;20415;-78
2022/11/22 09:38:30;;;;;;;8.83;4.57;;;5.90;99.90;;;;;;6364180;22;20407;-78
2022/11/22 09:40:58;;;;;;;7.07;4.63;;;6.00;99.90;;;;;;6364200;22;20463;-78
2022/11/22 09:43:37;;;;;;;9.40;3.77;;;6.10;99.90;;;;;;6362853;22;20487;-78
2022/11/22 09:46:22;;;;;;;6.43;3.50;;;6.10;99.90;;;;;;6363142;22;20391;-78
2022/11/22 09:49:23;;;;;;;3.97;3.50;;;6.30;99.90;;;;;;6362601;22;20425;-82
2022/11/22 09:51:58;;;;;;;17.13;4.10;;;6.30;99.90;;;;;;6362105;22;20413;-78
2022/11/22 09:54:30;;;;;;;6.83;3.57;;;6.20;99.90;;;;;;6362882;22;20403;-77
2022/11/22 09:57:09;;;;;;;9.67;3.80;;;5.80;99.90;;;;;;6363239;22;20406;-78
2022/11/22 09:59:39;;;;;;;9.00;3.33;;;6.00;99.90;;;;;;6364974;22;20449;-78
2022/11/22 10:02:10;;;;;;;3.63;2.50;;;6.10;99.90;;;;;;6362381;22;20963;-77
2022/11/22 10:04:40;;;;;;;8.00;2.77;;;6.10;99.90;;;;;;6361134;22;20438;-78
2022/11/22 10:07:13;;;;;;;5.13;2.70;;;6.00;99.90;;;;;;6362372;22;20383;-77
2022/11/22 10:09:47;;;;;;;8.17;3.20;;;6.00;99.90;;;;;;6362839;22;20800;-77
2022/11/22 10:12:19;;;;;;;2.40;2.20;;;5.90;99.90;;;;;;6370082;22;20399;-78
2022/11/22 10:14:54;;;;;;;4.90;2.20;;;5.80;99.90;;;;;;6370434;22;20466;-77
2022/11/22 10:17:28;;;;;;;5.07;2.13;;;5.80;99.90;;;;;;6371536;22;20394;-77
2022/11/22 10:20:04;;;;;;;13.77;3.43;;;5.70;99.90;;;;;;6369987;22;20424;-80
2022/11/22 10:22:32;;;;;;;3.60;1.80;;;5.70;99.90;;;;;;6371719;22;20722;-77
2022/11/22 10:25:02;;;;;;;4.23;2.30;;;5.70;99.90;;;;;;6373250;22;20446;-77
2022/11/22 10:30:16;;;;;;;5.23;2.30;;;5.70;99.90;;;;;;6366672;22;20430;-76
2022/11/22 10:32:57;;;;;;;7.63;2.30;;;5.60;99.90;;;;;;6369369;22;20733;-77
2022/11/22 10:35:52;;;;;;;5.20;2.13;;;5.80;99.90;;;;;;6371524;22;20461;-79
2022/11/22 10:38:44;;;;;;;5.40;2.53;;;5.80;99.90;;;;;;6373162;22;20387;-78
2022/11/22 10:41:23;;;;;;;8.90;2.60;;;5.80;99.90;;;;;;6373861;22;20466;-77
2022/11/22 10:44:02;;;;;;;2.60;2.17;;;5.60;99.90;;;;;;6369780;22;21190;-77
2022/11/22 10:46:39;;;;;;;6.03;2.40;;;6.00;99.90;;;;;;6366350;22;20402;-78
2022/11/22 10:49:16;;;;;;;5.83;3.00;;;6.00;99.90;;;;;;6363259;22;20407;-79
2022/11/22 10:51:55;;;;;;;5.07;2.60;;;5.90;99.90;;;;;;6361571;22;20406;-77
2022/11/22 10:54:27;;;;;;;6.40;2.47;;;5.90;99.90;;;;;;6363060;22;20383;-79
2022/11/22 10:57:06;;;;;;;4.77;2.50;;;6.40;99.90;;;;;;6363468;22;20451;-77
2022/11/22 10:59:51;;;;;;;3.83;2.30;;;6.30;99.90;;;;;;6365206;22;20394;-79
2022/11/22 11:02:46;;;;;;;8.17;3.07;;;6.10;99.90;;;;;;6368223;22;21004;-78
2022/11/22 11:05:19;;;;;;;4.20;2.20;;;6.10;99.90;;;;;;6363006;22;20434;-79
2022/11/22 11:07:51;;;;;;;7.37;2.50;;;6.20;99.90;;;;;;6363525;22;20440;-75
2022/11/22 11:10:21;;;;;;;2.23;1.53;;;6.10;99.90;;;;;;6364875;22;21020;-73
2022/11/22 11:12:53;;;;;;;2.87;1.50;;;6.00;99.90;;;;;;6365159;22;20775;-74
2022/11/22 11:15:23;;;;;;;7.93;2.40;;;6.10;99.90;;;;;;6363689;22;20619;-73
2022/11/22 11:17:54;;;;;;;7.50;2.27;;;6.30;99.90;;;;;;6363864;22;20436;-73
2022/11/22 11:20:25;;;;;;;5.57;3.17;;;6.60;99.90;;;;;;6364360;22;20539;-67
2022/11/22 11:22:53;;;;;;;5.43;2.33;;;6.50;99.90;;;;;;6363769;22;20391;-66
2022/11/22 11:25:29;;;;;;;3.77;2.60;;;6.50;99.90;;;;;;6363073;22;20446;-68
2022/11/22 11:27:58;;;;;;;7.30;2.17;;;6.20;99.90;;;;;;6364377;22;20737;-68
2022/11/22 11:30:25;;;;;;;2.63;1.90;;;6.10;99.90;;;;;;6364251;22;20410;-68
2022/11/22 11:32:54;;;;;;;4.93;2.70;;;6.20;99.90;;;;;;6363491;22;20493;-67
2022/11/22 11:38:53;;;;;;;10.33;2.87;;;6.10;99.90;;;;;;6365867;22;20475;-75
2022/11/22 11:41:24;;;;;;;5.07;2.10;;;6.00;99.90;;;;;;6365377;22;20770;-75
2022/11/22 11:43:52;;;;;;;8.60;2.50;;;5.90;99.90;;;;;;6365405;22;20423;-74
2022/11/22 11:46:20;;;;;;;8.20;2.43;;;6.00;99.90;;;;;;6365547;22;20489;-75
2022/11/22 11:48:48;;;;;;;7.53;2.13;;;5.70;99.90;;;;;;6365656;22;20486;-75
2022/11/22 11:51:20;;;;;;;2.27;1.90;;;5.80;99.90;;;;;;6364165;22;20407;-75
2022/11/22 11:53:59;;;;;;;5.40;2.10;;;6.00;99.90;;;;;;6364925;22;20784;-74
2022/11/22 11:56:51;;;;;;;5.53;1.90;;;5.60;99.90;;;;;;6364685;22;20395;-75
2022/11/22 11:59:19;;;;;;;2.13;1.93;;;5.50;99.90;;;;;;6335140;22;20962;-75
2022/11/22 12:01:56;;;;;;;4.30;1.60;;;5.30;99.90;;;;;;6365052;22;20453;-77
2022/11/22 12:04:27;;;;;;;3.80;1.87;;;5.20;99.90;;;;;;6366515;22;20509;-76
2022/11/22 12:06:56;;;;;;;6.33;2.43;;;5.30;99.90;;;;;;6365798;22;20490;-76
2022/11/22 12:09:34;;;;;;;4.17;1.90;;;5.30;99.90;;;;;;6365015;22;20511;-76
2022/11/22 12:12:10;;;;;;;7.10;2.50;;;5.40;99.90;;;;;;6365669;22;20415;-76
2022/11/22 12:14:41;;;;;;;4.80;2.37;;;5.40;99.90;;;;;;6360034;22;20769;-75
2022/11/22 12:17:16;;;;;;;3.20;2.03;;;5.70;99.90;;;;;;6358928;22;20892;-75
2022/11/22 12:19:56;;;;;;;4.90;2.80;;;5.90;99.90;;;;;;6360655;22;20386;-75
2022/11/22 12:22:30;;;;;;;2.90;1.80;;;5.70;99.90;;;;;;6361443;22;20395;-76
2022/11/22 12:25:11;;;;;;;4.50;1.97;;;5.70;99.90;;;;;;6360693;22;20430;-77
2022/11/22 12:27:38;;;;;;;3.13;2.00;;;5.80;99.90;;;;;;6361139;22;20394;-78
2022/11/22 12:30:11;;;;;;;8.67;1.90;;;6.00;99.90;;;;;;6360791;22;20402;-78
2022/11/22 12:32:41;;;;;;;4.20;1.50;;;6.10;99.90;;;;;;6360564;22;20439;-76
2022/11/22 12:35:15;;;;;;;4.40;2.10;;;6.00;99.90;;;;;;6368468;22;20410;-78
2022/11/22 12:37:47;;;;;;;4.50;1.40;;;6.00;99.90;;;;;;6364748;22;20395;-79
2022/11/22 12:40:18;;;;;;;3.83;1.80;;;5.90;99.90;;;;;;6362934;22;20406;-77
2022/11/22 12:42:54;;;;;;;5.50;1.80;;;6.00;99.90;;;;;;6366041;22;20410;-78
2022/11/22 12:45:28;;;;;;;2.27;1.50;;;5.80;99.90;;;;;;6372018;22;20993;-76
2022/11/22 12:47:57;;;;;;;4.90;1.57;;;5.80;99.90;;;;;;6361033;22;20415;-76
2022/11/22 12:50:29;;;;;;;2.60;1.50;;;5.90;99.90;;;;;;6361204;22;21219;-76
2022/11/22 12:53:03;;;;;;;3.63;1.70;;;6.00;99.90;;;;;;6361081;22;20441;-76
2022/11/22 12:55:40;;;;;;;7.00;1.73;;;6.00;99.90;;;;;;6361204;22;20419;-76
2022/11/22 12:58:32;;;;;;;3.03;1.30;;;6.10;99.90;;;;;;6361322;22;20421;-75
2022/11/22 13:01:09;;;;;;;6.37;2.33;;;6.00;99.90;;;;;;6357555;22;20957;-76
2022/11/22 13:03:44;;;;;;;3.13;1.97;;;5.90;99.90;;;;;;6359927;22;20487;-77
2022/11/22 13:06:11;;;;;;;3.80;1.80;;;5.90;99.90;;;;;;6359226;22;20512;-76
2022/11/22 13:08:43;;;;;;;3.40;1.60;;;6.00;99.90;;;;;;6359201;22;20467;-76
2022/11/22 13:11:16;;;;;;;8.37;1.80;;;6.10;99.90;;;;;;6361361;22;20431;-76
2022/11/22 13:13:46;;;;;;;3.00;1.73;;;6.30;99.90;;;;;;6366345;22;20440;-75
2022/11/22 13:16:14;;;;;;;5.90;4.60;;;6.30;99.90;;;;;;6361216;22;20888;-75
2022/11/22 13:18:44;;;;;;;4.93;2.03;;;6.30;99.90;;;;;;6358499;22;20439;-75
2022/11/22 13:21:19;;;;;;;2.40;1.87;;;6.40;99.90;;;;;;6358602;22;20407;-76
2022/11/22 13:24:13;;;;;;;4.37;2.37;;;6.30;99.90;;;;;;6362498;22;20413;-76
2022/11/22 13:26:49;;;;;;;2.73;1.63;;;6.40;99.90;;;;;;6361768;22;20410;-78
2022/11/22 13:29:22;;;;;;;3.37;2.00;;;6.40;99.90;;;;;;6361936;22;20418;-76
2022/11/22 13:32:07;;;;;;;3.43;1.93;;;6.30;99.90;;;;;;6357747;22;20502;-75
2022/11/22 13:34:38;;;;;;;5.40;2.00;;;6.10;99.90;;;;;;6358682;22;20403;-78
2022/11/22 13:37:14;;;;;;;3.20;1.63;;;6.10;99.90;;;;;;6358768;22;20398;-76
2022/11/22 13:39:45;;;;;;;2.33;1.67;;;6.30;99.90;;;;;;6358018;22;20387;-76
2022/11/22 13:42:18;;;;;;;5.07;2.13;;;6.40;99.90;;;;;;6359747;22;20395;-77
2022/11/22 13:45:20;;;;;;;7.87;1.63;;;6.40;99.90;;;;;;6361566;22;20513;-75
2022/11/22 13:47:48;;;;;;;3.10;1.97;;;6.30;99.90;;;;;;6355287;22;20430;-75
2022/11/22 13:50:52;;;;;;;2.80;1.83;;;6.30;99.90;;;;;;6360683;22;20410;-76
2022/11/22 13:53:28;;;;;;;5.30;2.10;;;6.30;99.90;;;;;;6358989;22;20429;-75
2022/11/22 13:55:58;;;;;;;3.70;1.97;;;5.90;99.90;;;;;;6330060;22;20410;-75
2022/11/22 13:58:53;;;;;;;4.93;1.90;;;5.90;99.90;;;;;;6359732;22;20766;-75
2022/11/22 14:01:45;;;;;;;2.43;1.97;;;6.00;99.90;;;;;;6355371;22;20453;-76
2022/11/22 14:04:21;;;;;;;5.53;3.63;;;6.10;99.90;;;;;;6333046;22;20488;-75
2022/11/22 14:07:00;;;;;;;3.80;3.50;;;6.20;99.90;;;;;;6356015;22;20438;-75
2022/11/22 14:09:38;;;;;;;3.37;2.00;;;6.20;99.90;;;;;;6358181;22;20786;-75
2022/11/22 14:12:56;;;;;;;8.30;2.53;;;6.20;99.90;;;;;;6359575;22;20429;-77
2022/11/22 14:31:25;;;;;;;10.27;2.50;;;6.00;99.90;;;;;;6215673;22;1298672;-80
2022/11/22 14:34:19;;;;;;;3.97;2.27;;;6.00;99.90;;;;;;6213141;23;20480;-80
2022/11/22 14:37:20;;;;;;;5.57;1.90;;;6.10;99.90;;;;;;6213137;23;20468;-83
2022/11/22 14:40:01;;;;;;;5.80;2.30;;;6.00;99.90;;;;;;6214610;23;20702;-80
2022/11/22 14:42:56;;;;;;;3.30;2.50;;;5.90;99.90;;;;;;6213720;23;20406;-77
2022/11/22 14:45:31;;;;;;;3.80;2.47;;;5.90;99.90;;;;;;6213473;23;20391;-78
2022/11/22 14:48:13;;;;;;;7.20;2.23;;;5.90;99.90;;;;;;6213626;23;21013;-78
2022/11/22 14:50:43;;;;;;;3.30;2.10;;;6.00;99.90;;;;;;6213369;23;20945;-78
2022/11/22 14:53:21;;;;;;;4.53;2.20;;;5.90;99.90;;;;;;6213345;23;20458;-77
2022/11/22 14:55:49;;;;;;;4.97;2.70;;;6.00;99.90;;;;;;6213860;23;20418;-76
2022/11/22 14:58:24;;;;;;;2.40;1.80;;;5.80;99.90;;;;;;6212968;23;20414;-78
2022/11/22 15:01:15;;;;;;;5.23;2.30;;;5.70;99.90;;;;;;6214332;23;20504;-77
2022/11/22 15:03:58;;;;;;;5.10;2.20;;;5.80;99.90;;;;;;6208174;23;21167;-76
2022/11/22 15:07:06;;;;;;;3.70;1.83;;;5.90;99.90;;;;;;6214076;23;20705;-74
2022/11/22 15:12:41;;;;;;;9.30;5.57;;;5.70;99.90;;;;;;6201587;23;20469;-85
2022/11/22 15:15:22;;;;;;;8.20;2.63;;;5.60;99.90;;;;;;6219053;23;20531;-79
2022/11/22 15:17:50;;;;;;;6.60;3.17;;;5.60;99.90;;;;;;6220166;23;20422;-92
2022/11/22 15:41:17;;;;;;;4.80;3.17;;;5.60;99.90;;;;;;6210416;23;20425;-90
2022/11/22 15:43:45;;;;;;;6.60;2.13;;;5.60;99.90;;;;;;6210334;23;20506;-90
2022/11/22 15:46:19;;;;;;;3.87;2.70;;;5.70;99.90;;;;;;6209183;23;20450;-90
2022/11/22 15:48:47;;;;;;;5.07;2.40;;;5.60;99.90;;;;;;6209929;23;20866;-92
2022/11/22 16:12:44;;;;;;;3.97;2.70;;;5.70;99.90;;;;;;6204659;22;21168;-91
2022/11/22 16:36:57;;;;;;;5.53;2.80;;;5.50;99.90;;;;;;6182826;23;20536;-81
2022/11/22 16:39:24;;;;;;;2.77;2.30;;;5.50;99.90;;;;;;6203828;23;21221;-81
2022/11/22 16:41:51;;;;;;;4.03;3.00;;;5.60;99.90;;;;;;6204984;23;20419;-79
2022/11/22 16:44:19;;;;;;;4.97;2.77;;;5.40;99.90;;;;;;6207490;23;20409;-83
2022/11/22 16:46:49;;;;;;;5.73;3.80;;;5.50;99.90;;;;;;6204936;23;20443;-83
2022/11/22 16:49:18;;;;;;;6.00;1.80;;;5.30;99.90;;;;;;6207234;23;21230;-82
2022/11/22 16:54:30;;;;;;;3.80;2.07;;;5.50;99.90;;;;;;6204244;23;20434;-88
2022/11/22 16:56:56;;;;;;;4.37;2.90;;;5.60;99.90;;;;;;6205914;23;20496;-78
2022/11/22 16:59:23;;;;;;;3.03;2.20;;;5.60;99.90;;;;;;6206491;23;20442;-78
2022/11/22 17:01:50;;;;;;;3.63;2.07;;;5.50;99.90;;;;;;6207287;23;21016;-78
2022/11/22 17:04:22;;;;;;;3.40;2.70;;;5.50;99.90;;;;;;6206408;23;20530;-80
2022/11/22 17:06:49;;;;;;;2.40;2.20;;;5.50;99.90;;;;;;6205798;23;20434;-78
2022/11/22 17:09:16;;;;;;;3.80;2.27;;;5.50;99.90;;;;;;6206520;23;20439;-79
2022/11/22 17:11:45;;;;;;;8.20;3.00;;;5.20;99.90;;;;;;6206106;23;20422;-78
2022/11/22 17:14:14;;;;;;;8.13;3.07;;;5.50;99.90;;;;;;6206300;23;20450;-80
2022/11/22 17:16:41;;;;;;;5.07;2.87;;;5.50;99.90;;;;;;6206034;23;20403;-80
2022/11/22 17:19:08;;;;;;;4.80;2.60;;;5.30;99.90;;;;;;6207164;23;20415;-78
2022/11/22 17:21:35;;;;;;;4.23;3.10;;;5.30;99.90;;;;;;6206885;23;20792;-78
2022/11/22 17:24:06;;;;;;;4.53;3.23;;;5.20;99.90;;;;;;6206926;23;20769;-78
2022/11/22 17:26:34;;;;;;;3.83;3.40;;;5.20;99.90;;;;;;6205368;23;20474;-78
2022/11/22 17:29:02;;;;;;;5.67;2.97;;;5.40;99.90;;;;;;6205080;23;20446;-78
2022/11/22 17:31:29;;;;;;;3.93;2.60;;;5.20;99.90;;;;;;6205297;23;20502;-79
2022/11/22 17:33:58;;;;;;;3.30;2.50;;;5.20;99.90;;;;;;6205078;23;20486;-80
2022/11/22 17:36:28;;;;;;;3.53;3.00;;;5.30;99.90;;;;;;6204985;23;20415;-83
2022/11/22 17:41:38;;;;;;;3.23;2.80;;;5.20;99.90;;;;;;6175022;23;20416;-77
2022/11/22 17:44:07;;;;;;;3.43;2.73;;;5.30;99.90;;;;;;6176917;23;20408;-85
2022/11/22 17:46:38;;;;;;;4.00;2.87;;;5.50;99.90;;;;;;6174508;23;20427;-78
2022/11/22 17:49:05;;;;;;;5.57;3.23;;;5.50;99.90;;;;;;6174536;23;20403;-79
2022/11/22 17:51:34;;;;;;;4.10;3.00;;;5.40;99.90;;;;;;6174562;23;20538;-79
2022/11/22 17:54:01;;;;;;;3.40;2.90;;;5.30;99.90;;;;;;6174849;23;20865;-78
2022/11/22 17:56:29;;;;;;;4.27;3.27;;;5.20;99.90;;;;;;6174218;23;20396;-78
2022/11/22 17:58:56;;;;;;;5.23;2.90;;;5.40;99.90;;;;;;6174788;23;20805;-79
2022/11/22 18:01:25;;;;;;;4.27;2.70;;;5.30;99.90;;;;;;6173115;23;20416;-78
2022/11/22 18:03:51;;;;;;;6.10;3.67;;;4.80;99.90;;;;;;6179081;23;20443;-77
2022/11/22 18:06:26;;;;;;;5.50;2.73;;;5.10;99.90;;;;;;6178117;23;20476;-77
2022/11/22 18:08:53;;;;;;;6.57;3.10;;;5.00;99.90;;;;;;6174871;23;20519;-78
2022/11/22 18:11:20;;;;;;;3.63;2.70;;;5.10;99.90;;;;;;6175345;23;20432;-78
2022/11/22 18:13:47;;;;;;;3.87;2.60;;;5.00;99.90;;;;;;6176492;23;20412;-78
2022/11/22 18:16:16;;;;;;;3.73;2.97;;;5.00;99.90;;;;;;6174987;23;20905;-76
2022/11/22 18:18:45;;;;;;;4.13;2.97;;;4.90;99.90;;;;;;6175696;23;20407;-78
2022/11/22 18:21:12;;;;;;;7.00;4.60;;;5.00;99.90;;;;;;6174811;23;20447;-78
2022/11/22 18:23:40;;;;;;;4.93;4.00;;;5.00;99.90;;;;;;6175506;23;20412;-77
2022/11/22 18:26:09;;;;;;;5.40;4.37;;;4.90;99.90;;;;;;6176054;23;20832;-77
2022/11/22 18:28:38;;;;;;;4.87;2.80;;;5.00;99.90;;;;;;6175896;23;20822;-78
2022/11/22 18:31:05;;;;;;;6.00;3.07;;;5.00;99.90;;;;;;6174295;23;20420;-79
2022/11/22 18:33:32;;;;;;;2.93;2.73;;;5.10;99.90;;;;;;6174189;23;20415;-77
2022/11/22 18:36:03;;;;;;;5.80;3.40;;;5.00;99.90;;;;;;6174409;23;21030;-77
2022/11/22 18:38:30;;;;;;;4.03;3.10;;;5.20;99.90;;;;;;6173601;23;20450;-77
2022/11/22 18:40:59;;;;;;;5.83;3.77;;;5.20;99.90;;;;;;6173576;23;20503;-79
2022/11/22 18:43:30;;;;;;;3.93;2.93;;;5.00;99.90;;;;;;6174490;23;20806;-78
2022/11/22 18:46:00;;;;;;;7.60;3.53;;;5.00;99.90;;;;;;6173805;23;20467;-76
2022/11/22 18:48:30;;;;;;;5.47;2.90;;;5.00;99.90;;;;;;6174726;23;20444;-79
2022/11/22 18:51:06;;;;;;;9.43;6.07;;;5.00;99.90;;;;;;6175419;23;20416;-78
2022/11/22 18:53:34;;;;;;;8.43;3.30;;;5.00;99.90;;;;;;6173453;23;20407;-87
2022/11/22 18:56:05;;;;;;;3.00;2.67;;;5.00;99.90;;;;;;6174089;23;20423;-79
2022/11/22 18:58:39;;;;;;;6.13;2.47;;;5.20;99.90;;;;;;6175328;23;20448;-78
2022/11/22 19:01:10;;;;;;;3.93;2.90;;;5.40;99.90;;;;;;6175564;23;20395;-79
2022/11/22 19:03:38;;;;;;;3.70;2.67;;;5.50;99.90;;;;;;6176495;23;20439;-77
2022/11/22 19:06:08;;;;;;;2.83;2.40;;;5.50;99.90;;;;;;6177517;23;20466;-79
2022/11/22 19:08:41;;;;;;;5.20;2.43;;;5.50;99.90;;;;;;6176155;23;20474;-81
2022/11/22 19:11:08;;;;;;;3.93;3.03;;;5.40;99.90;;;;;;6175959;23;21007;-78
2022/11/22 19:13:37;;;;;;;6.47;3.23;;;5.40;99.90;;;;;;6176823;23;20444;-78
2022/11/22 19:16:10;;;;;;;4.93;3.50;;;5.30;99.90;;;;;;6175768;23;20929;-80
2022/11/22 19:18:37;;;;;;;3.67;2.80;;;5.30;99.90;;;;;;6175183;23;20416;-77
2022/11/22 19:21:07;;;;;;;5.13;3.27;;;5.20;99.90;;;;;;6176029;23;20474;-77
2022/11/22 19:23:34;;;;;;;3.53;2.70;;;5.10;99.90;;;;;;6177105;23;20408;-77
2022/11/22 19:26:02;;;;;;;12.93;5.40;;;5.30;99.90;;;;;;6176762;23;20416;-77
2022/11/22 19:28:29;;;;;;;5.13;3.40;;;5.20;99.90;;;;;;6175844;23;20538;-77
2022/11/22 19:31:01;;;;;;;3.53;3.00;;;5.20;99.90;;;;;;6175483;23;20466;-79
2022/11/22 19:33:28;;;;;;;3.50;3.17;;;4.90;99.90;;;;;;6175894;23;20764;-77
2022/11/22 19:35:57;;;;;;;8.80;3.50;;;5.20;99.90;;;;;;6178057;23;20455;-78
2022/11/22 19:38:25;;;;;;;3.80;2.93;;;5.20;99.90;;;;;;6177048;23;20519;-79
2022/11/22 19:40:52;;;;;;;5.40;3.93;;;5.20;99.90;;;;;;6176634;23;21209;-81
2022/11/22 19:43:20;;;;;;;4.03;2.80;;;4.80;99.90;;;;;;6178057;23;20416;-78
2022/11/22 19:45:47;;;;;;;2.80;2.60;;;5.20;99.90;;;;;;6178288;23;20438;-78
2022/11/22 19:48:15;;;;;;;4.20;3.37;;;5.20;99.90;;;;;;6176916;23;21036;-79
2022/11/22 19:50:43;;;;;;;3.90;3.00;;;5.20;99.90;;;;;;6178384;23;20420;-78
2022/11/22 19:53:10;;;;;;;4.47;3.40;;;5.30;99.90;;;;;;6179298;23;20451;-78
2022/11/22 19:55:39;;;;;;;4.17;3.63;;;5.20;99.90;;;;;;6181884;23;20913;-78
2022/11/22 19:58:06;;;;;;;7.93;4.30;;;5.20;99.90;;;;;;6179651;23;20976;-79
2022/11/22 20:00:42;;;;;;;6.40;3.33;;;5.10;99.90;;;;;;6180578;23;20448;-79
2022/11/22 20:03:12;;;;;;;5.03;3.60;;;5.10;99.90;;;;;;6180045;23;20735;-78
2022/11/22 20:05:40;;;;;;;5.00;4.00;;;5.00;99.90;;;;;;6179337;23;20408;-79
2022/11/22 20:08:07;;;;;;;3.60;3.30;;;5.00;99.90;;;;;;6178251;23;20448;-79
2022/11/22 20:10:37;;;;;;;3.80;3.03;;;5.20;99.90;;;;;;6178467;23;20434;-77
2022/11/22 20:13:05;;;;;;;3.17;2.90;;;5.10;99.90;;;;;;6180513;23;20429;-78
2022/11/22 20:15:32;;;;;;;4.33;3.37;;;4.90;99.90;;;;;;6178008;23;20404;-77
2022/11/22 20:17:59;;;;;;;5.97;3.63;;;4.90;99.90;;;;;;6173438;23;20495;-76
2022/11/22 20:20:27;;;;;;;4.60;2.67;;;5.10;99.90;;;;;;6174377;23;20738;-75
2022/11/22 20:22:54;;;;;;;4.80;2.80;;;5.00;99.90;;;;;;6178993;23;20413;-76
2022/11/22 20:25:21;;;;;;;4.90;3.33;;;5.00;99.90;;;;;;6178744;23;20410;-77
2022/11/22 20:27:48;;;;;;;5.13;2.40;;;4.90;99.90;;;;;;6179797;23;20510;-76
2022/11/22 20:30:19;;;;;;;4.73;3.37;;;4.70;99.90;;;;;;6179432;23;20404;-77
2022/11/22 20:32:46;;;;;;;6.00;3.50;;;4.70;99.90;;;;;;6179756;23;20739;-76
2022/11/22 20:35:13;;;;;;;3.40;3.10;;;4.70;99.90;;;;;;6179358;23;20419;-77
2022/11/22 20:37:40;;;;;;;6.23;3.37;;;4.60;99.90;;;;;;6179016;23;20519;-73
2022/11/22 20:40:08;;;;;;;8.67;3.60;;;4.60;99.90;;;;;;6178486;23;20956;-76
2022/11/22 20:42:35;;;;;;;3.03;2.63;;;4.70;99.90;;;;;;6179221;23;21171;-76
2022/11/22 20:45:07;;;;;;;3.87;2.87;;;4.90;99.90;;;;;;6180884;23;20422;-76
2022/11/22 20:47:36;;;;;;;4.80;2.87;;;4.90;99.90;;;;;;6179672;23;20423;-77
2022/11/22 20:50:03;;;;;;;4.67;3.53;;;4.80;99.90;;;;;;6178685;23;20426;-78
2022/11/22 20:52:30;;;;;;;5.70;2.90;;;4.80;99.90;;;;;;6180718;23;20686;-77
2022/11/22 20:54:57;;;;;;;2.37;2.17;;;4.90;99.90;;;;;;6182562;23;20909;-78
2022/11/22 20:57:24;;;;;;;3.47;2.13;;;4.80;99.90;;;;;;6181033;23;20680;-76
2022/11/22 20:59:51;;;;;;;3.53;2.80;;;4.80;99.90;;;;;;6182449;23;20415;-75
2022/11/22 21:05:11;;;;;;;4.80;4.00;;;4.80;99.90;;;;;;6170437;23;20412;-76
2022/11/22 21:07:39;;;;;;;5.30;3.43;;;4.80;99.90;;;;;;6181780;23;20422;-78
2022/11/22 21:16:11;;;;;;;4.53;2.87;;;4.80;99.90;;;;;;6190614;23;20375;-83
2022/11/22 21:18:38;;;;;;;6.23;2.60;;;4.80;99.90;;;;;;6193942;23;20428;-82
2022/11/22 21:21:07;;;;;;;3.10;2.70;;;4.90;99.90;;;;;;6192681;23;21008;-83
2022/11/22 21:23:51;;;;;;;5.00;3.17;;;4.80;99.90;;;;;;6198520;23;20450;-83
2022/11/22 21:26:26;;;;;;;2.63;2.30;;;4.70;99.90;;;;;;6182710;23;20466;-80
2022/11/22 21:29:23;;;;;;;2.67;2.43;;;4.80;99.90;;;;;;6183055;23;20514;-86
2022/11/22 21:31:50;;;;;;;3.87;2.80;;;4.90;99.90;;;;;;6184196;23;20431;-81
2022/11/22 21:34:17;;;;;;;4.10;2.87;;;4.90;99.90;;;;;;6182156;23;20419;-86
2022/11/22 21:36:45;;;;;;;3.77;2.80;;;4.70;99.90;;;;;;6182442;23;20411;-83
2022/11/22 21:39:46;;;;;;;4.27;2.77;;;4.80;99.90;;;;;;6183382;23;20777;-85
2022/11/22 21:42:13;;;;;;;5.27;3.53;;;5.30;99.90;;;;;;6180525;23;20893;-85
2022/11/22 21:44:41;;;;;;;3.60;2.70;;;4.50;99.90;;;;;;6181142;23;20412;-83
2022/11/22 21:47:08;;;;;;;4.37;3.60;;;4.40;99.90;;;;;;6180657;23;20468;-84
2022/11/22 21:49:41;;;;;;;4.23;2.80;;;4.50;99.90;;;;;;6180574;23;20958;-85
2022/11/22 21:52:10;;;;;;;6.27;3.30;;;4.60;99.90;;;;;;6181041;23;20672;-87
2022/11/22 21:55:00;;;;;;;2.80;2.60;;;4.50;99.90;;;;;;6183360;23;20933;-86
2022/11/22 21:57:27;;;;;;;4.60;3.27;;;3.80;99.90;;;;;;6181059;23;20403;-85
2022/11/22 21:59:54;;;;;;;2.93;2.63;;;4.60;99.90;;;;;;6181178;23;20459;-84
2022/11/22 22:02:21;;;;;;;3.83;3.43;;;4.60;99.90;;;;;;6179478;23;20901;-84